METAR Data
IDs: Format: Raw Decoded Include TAF

Data at: 0905 UTC 26 Jan 2020

KMSN 260853Z AUTO 29006KT 7SM OVC009 00/M02 A2990 RMK AO2 SLP134 T00001017 53004
KMSN 260753Z AUTO 28006KT 8SM OVC009 00/M02 A2989 RMK AO2 SLP131 T00001017
KMSN 260742Z AUTO 28008KT 8SM OVC009 00/M02 A2989 RMK AO2 T00001017
KMSN 260701Z AUTO 29006KT 9SM FEW009 BKN013 OVC023 00/M02 A2989 RMK AO2 T00001017
KMSN 260653Z AUTO VRB06KT 9SM FEW009 BKN016 OVC023 00/M02 A2989 RMK AO2 SLP130 T00001017
KMSN 260628Z AUTO 28005KT 10SM SCT012 OVC018 00/M02 A2989 RMK AO2 T00001017
KMSN 260615Z AUTO 28006KT 10SM BKN013 OVC034 00/M02 A2988 RMK AO2 T00001017
KMSN 260553Z AUTO 29008KT 10SM OVC039 01/M02 A2988 RMK AO2 SLP129 60000 T00061017 10011 20006 400220000 51007
KMSN 260514Z AUTO 29007KT 10SM SCT013 BKN038 OVC047 01/M01 A2988 RMK AO2 T00061011
KMSN 260453Z 29005KT 10SM BKN013 OVC047 01/M01 A2988 RMK AO2 SLP129 T00061011
KMSN 260441Z 29007KT 10SM BKN013 OVC047 01/M01 A2988 RMK AO2 T00061011
KMSN 260353Z 29006KT 10SM FEW024 OVC049 01/M01 A2987 RMK AO2 DZB05E22SNE05 SLP124 P0000 T00111011
KMSN 260342Z 29006KT 10SM FEW009 SCT024 OVC048 01/M01 A2987 RMK AO2 DZB05E22SNE05 P0000 T00061011
KMSN 260314Z 30006KT 10SM -DZ FEW009 FEW014 OVC024 01/M01 A2987 RMK AO2 DZB05SNE05 P0000 T00061011
KMSN 260253Z 30005KT 10SM -SN SCT008 BKN013 OVC047 01/M01 A2986 RMK AO2 SLP122 P0000 60000 T00061006 51004
KMSN 260235Z 29006KT 9SM -SN FEW008 SCT030 OVC047 01/M01 A2987 RMK AO2 P0000 T00061011
KMSN 260153Z 29007KT 4SM -SN BR SCT013 OVC026 01/M01 A2986 RMK AO2 DZB17E38SNB38 SLP121 P0000 T00061011
KMSN 260143Z 29007KT 6SM -SN BR SCT013 OVC024 01/M01 A2987 RMK AO2 DZB17E38SNB38 P0000 T00061011
KMSN 260127Z 29008KT 10SM -DZ BKN013 OVC023 01/M01 A2987 RMK AO2 DZB17 P0000 T00061011
KMSN 260053Z 29009KT 10SM OVC017 01/M01 A2986 RMK AO2 SLP122 T00061011
KMSN 260006Z 29006KT 10SM SCT011 OVC019 01/M01 A2986 RMK AO2 T00061011
KMSN 252353Z 29006KT 10SM BKN012 OVC017 01/M01 A2985 RMK AO2 SLP119 4/008 60001 T00061011 10022 20006 51010
KMSN 252349Z 29006KT 10SM BKN012 OVC017 01/M01 A2985 RMK AO2
KMSN 252253Z 29008KT 10SM FEW013 BKN017 OVC024 01/M01 A2984 RMK AO2 SLP113 T00111011
KMSN 252153Z 29007KT 10SM FEW011 BKN017 OVC023 01/M01 A2982 RMK AO2 SLP109 T00111011
KMSN 252053Z 30005KT 10SM FEW012 BKN020 OVC028 01/M01 A2982 RMK AO2 SNE45 SLP106 P0001 60001 T00111006 53002
KMSN 252021Z 30007KT 9SM -SN SCT012 BKN025 OVC030 01/M01 A2981 RMK AO2 P0001 T00111006
KMSN 252015Z 30005KT 2SM -SN BR BKN012 BKN025 OVC030 01/M01 A2981 RMK AO2 SFC VIS 5 P0001 T00111006
KMSN 252003Z 32009KT 1SM R36/P6000FT -SN BR BKN012 BKN016 OVC034 01/M01 A2981 RMK AO2 SFC VIS 2 P0000 T00111011
KMSN 251953Z 31006KT 10SM -SN BKN016 BKN024 OVC034 02/M01 A2981 RMK AO2 SNE17B53 SLP101 CIG 012V019 P0000 T00171011
KMSN 251908Z 31009KT 9SM -SN FEW010 BKN015 OVC020 02/M01 A2981 RMK AO2 P0000 T00171006
KMSN 251853Z 31009KT 9SM -SN OVC013 02/M01 A2980 RMK AO2 SLP101 P0000 T00171006
KMSN 251803Z 30005KT 7SM -SN BKN010 OVC019 01/M01 A2981 RMK AO2 CIG 007V014 P0000 T00111006
KMSN 251753Z 29005KT 6SM -SN BR BKN009 OVC016 01/M01 A2981 RMK AO2 SLP103 CIG 008V012 4/009 933018 P0000 60005 T00111006 10011 20000 50002
KMSN 251718Z 29007KT 6SM -SN BR BKN011 OVC017 01/M01 A2982 RMK AO2 CIG 008V015 P0000 T00111006
KMSN 251653Z 29004KT 6SM -SN BR BKN009 OVC014 01/M01 A2982 RMK AO2 SLP105 CIG 007V012 P0000 T00111006
KMSN 251602Z 29004KT 3SM -SN BR BKN007 OVC018 01/00 A2981 RMK AO2 SFC VIS 4 P0000 T00110000
KMSN 251553Z 30005KT 2SM -SN BR BKN007 OVC019 01/00 A2980 RMK AO2 SFC VIS 4 SLP101 CIG 004V012 P0001 T00110000
KMSN 251544Z 30005KT 2SM -SN BR BKN007 BKN015 OVC023 01/00 A2981 RMK AO2 SFC VIS 4 CIG 004V011 P0001 T00060000
KMSN 251501Z 29004KT 1 1/2SM -SN BR BKN008 OVC012 01/00 A2980 RMK AO2 SFC VIS 1 3/4 P0000 T00060000
KMSN 251453Z 28005KT 2SM -SN BR BKN008 OVC013 01/00 A2980 RMK AO2 SFC VIS 3 SLP101 CIG 005V010 P0001 60004 T00060000 51008
KMSN 251439Z 29003KT 3SM -SN BR SCT007 OVC012 01/00 A2980 RMK AO2 P0001 T00060000
KMSN 251432Z 29004KT 2SM -SN BR FEW008 OVC013 01/00 A2980 RMK AO2 SFC VIS 3 P0001 T00060000
KMSN 251416Z 29004KT 2SM -SN BR SCT006 OVC015 01/M01 A2980 RMK AO2 SFC VIS 2 1/2 P0000 T00061006
KMSN 251353Z 30004KT 2SM -SN BR SCT007 OVC013 01/M01 A2980 RMK AO2 SFC VIS 2 1/2 SLP101 CIG 011V017 P0000 T00061006
KMSN 251327Z 30004KT 2SM -SN BR SCT007 BKN013 OVC023 01/M01 A2979 RMK AO2 SFC VIS 2 1/2 P0000 T00061006
KMSN 251311Z 30005KT 2SM -SN BR SCT005 BKN015 OVC023 00/M01 A2979 RMK AO2 SFC VIS 2 1/2 P0000 T00001006
KMSN 251253Z 30004KT 2SM -SN BR BKN004 OVC022 00/M01 A2979 RMK AO2 SLP096 P0003 T00001006
KMSN 251239Z 31003KT 2SM -SN BR BKN004 OVC020 00/M01 A2978 RMK AO2 P0002 T00001006
KMSN 251213Z 30005KT 1 3/4SM -SN BR BKN004 OVC013 00/M01 A2978 RMK AO2 P0001 T00001006
KMSN 251153Z 31004KT 1SM R36/P6000FT -SN BR SCT005 OVC010 00/M01 A2978 RMK AO2 SLP093 4/009 P0003 60014 70030 T00001006 10006 20000 53003
KMSN 251146Z 31005KT 1 1/4SM -SN BR SCT005 OVC012 00/M01 A2978 RMK AO2 P0002 T00001006
KMSN 251113Z AUTO 31005KT 1 3/4SM -SN BR BKN005 BKN010 OVC015 00/M01 A2977 RMK AO2 P0000 T00001006
KMSN 251053Z AUTO 31004KT 2 1/2SM -SN BR BKN005 OVC009 00/M01 A2977 RMK AO2 SLP090 P0001 T00001006
KMSN 251050Z AUTO 31004KT 3SM -SN BR BKN007 OVC012 00/M01 A2977 RMK AO2 CIG 004V009 P0001
KMSN 251014Z AUTO 30003KT 2SM -SN BR BKN006 OVC013 00/M01 A2977 RMK AO2 CIG 003V010 P0000 T00001006
KMSN 250953Z AUTO 31005KT 1 1/2SM -SN BR BKN005 OVC012 00/M01 A2977 RMK AO2 SLP089 P0004 T00001006
KMSN 250853Z AUTO 32005KT 1 1/4SM -SN BR OVC006 00/M01 A2977 RMK AO2 SLP091 P0004 60006 T00001006 50000
KMSN 250805Z AUTO 32004KT 1 1/2SM -SN BR OVC006 01/M01 A2978 RMK AO2 CIG 004V011 P0000 T00061006
KMSN 250753Z AUTO 33004KT 2 1/2SM -SN BR OVC006 01/M01 A2977 RMK AO2 SLP090 P0001 T00061006
KMSN 250745Z AUTO 32005KT 2 1/2SM -SN BR OVC006 01/M01 A2978 RMK AO2 CIG 005V010 P0001 T00061006
KMSN 250653Z AUTO 33005KT 3SM -SN BR OVC006 01/M01 A2977 RMK AO2 SLP090 P0001 T00061006
KMSN 250650Z AUTO 32006KT 3SM -SN BR OVC007 01/M01 A2977 RMK AO2 P0001
KMSN 250634Z AUTO 33005KT 1 3/4SM -SN BR OVC007 01/M01 A2978 RMK AO2 P0000 T00061006
KMSN 250627Z AUTO 32005KT 4SM -SN BR OVC007 01/M01 A2977 RMK AO2 P0000 T00061006
KMSN 250609Z AUTO 34006KT 2SM -SN BR OVC006 01/M01 A2978 RMK AO2 P0000 T00061006
KMSN 250553Z AUTO 33006KT 3SM -SN BR OVC006 01/M01 A2978 RMK AO2 SLP094 P0001 60015 T00061006 10011 20000 400110000 58007
KMSN 250545Z AUTO 32006KT 3SM -SN BR OVC006 01/M01 A2978 RMK AO2 CIG 005V010 P0001 T00061006
KMSN 250538Z AUTO 33006KT 2 1/2SM -SN BR OVC006 01/M01 A2978 RMK AO2 CIG 005V010 P0001 T00061006
KMSN 250453Z 34006KT 5SM -SN BR BKN006 OVC014 01/M01 A2979 RMK AO2 CIG 004V010 SLP097 LAST P0003 T00061006
KMSN 250436Z 34006KT 4SM -SN BR OVC006 01/M01 A2979 RMK AO2 P0002 T00061006
KMSN 250353Z 34005KT 1 1/2SM -SN BR BKN004 OVC010 01/M01 A2980 RMK AO2 SFC VIS 2 SLP099 P0003 T00061006
KMSN 250253Z 34006KT 1SM R36/P6000FT -SN BR BKN004 OVC007 00/00 A2980 RMK AO2 SFC VIS 1 1/2 SLP102 P0004 60008 T00000000 58004
KMSN 250237Z 34005KT 1 1/2SM -SN BR OVC004 01/00 A2981 RMK AO2 TWR VIS 2 P0002 T00060000
KMSN 250219Z 34005KT 1 1/2SM -SN BR BKN005 OVC011 01/00 A2981 RMK AO2 TWR VIS 2 P0001 T00060000
KMSN 250153Z 34005KT 2SM -SN BR OVC004 01/00 A2981 RMK AO2 DZE0057RAB0057E40PLE0057SNB0057 SLP105 P0003 T00060000
KMSN 250103Z 35006KT 1 1/2SM -SNRA BR OVC003 01/00 A2982 RMK AO2 SFC VIS 2 DZE0057RAB0057PLE0057SNB0057 P0000 T00060000
KMSN 250053Z 35006KT 1 1/2SM -PLDZ BR OVC002 01/00 A2982 RMK AO2 SFC VIS 2 1/2 PLB46 SLP106 P0001 T00060000
KMSN 242353Z 36007KT 1 1/4SM -DZ BR OVC002 01/01 A2982 RMK AO2 TWR VIS 1 1/2 DZB29 SLP106 4/006 P0001 60001 T00110006 10011 20011 56002
KMSN 242253Z 36007KT 1 1/2SM BR OVC003 01/00 A2982 RMK AO2 SLP106 T00110000
KMSN 242153Z 01008KT 1 1/2SM BR OVC003 01/01 A2982 RMK AO2 SFC VIS 4 SLP106 T00110006